sensor_id;sensor_type;location;lat;lon;timestamp;temperature;humidity
23723;DHT22;12042;52.136;5.584;2022-12-07T06:50:06;4.20;99.90
23723;DHT22;12042;52.136;5.584;2022-12-07T06:52:33;4.20;99.90
23723;DHT22;12042;52.136;5.584;2022-12-07T06:54:59;4.10;99.90
23723;DHT22;12042;52.136;5.584;2022-12-07T06:57:25;4.00;99.90
23723;DHT22;12042;52.136;5.584;2022-12-07T06:59:51;3.80;99.90
23723;DHT22;12042;52.136;5.584;2022-12-07T07:02:17;3.60;99.90
23723;DHT22;12042;52.136;5.584;2022-12-07T07:04:43;3.50;99.90
23723;DHT22;12042;52.136;5.584;2022-12-07T07:07:08;3.60;99.90
23723;DHT22;12042;52.136;5.584;2022-12-07T07:09:34;4.50;99.90
23723;DHT22;12042;52.136;5.584;2022-12-07T07:12:00;4.50;99.90
23723;DHT22;12042;52.136;5.584;2022-12-07T07:14:25;3.70;99.90
23723;DHT22;12042;52.136;5.584;2022-12-07T07:16:51;4.10;99.90
23723;DHT22;12042;52.136;5.584;2022-12-07T07:19:17;3.40;99.90
23723;DHT22;12042;52.136;5.584;2022-12-07T07:21:42;3.70;99.90
23723;DHT22;12042;52.136;5.584;2022-12-07T07:24:08;3.70;99.90
23723;DHT22;12042;52.136;5.584;2022-12-07T07:26:33;3.30;99.90
23723;DHT22;12042;52.136;5.584;2022-12-07T07:28:59;3.80;99.90
23723;DHT22;12042;52.136;5.584;2022-12-07T07:31:24;3.30;99.90
23723;DHT22;12042;52.136;5.584;2022-12-07T07:33:50;3.60;99.90
23723;DHT22;12042;52.136;5.584;2022-12-07T07:36:17;3.40;99.90
23723;DHT22;12042;52.136;5.584;2022-12-07T07:38:42;3.40;99.90
23723;DHT22;12042;52.136;5.584;2022-12-07T07:41:08;3.70;99.90
23723;DHT22;12042;52.136;5.584;2022-12-07T07:43:33;3.30;99.90
23723;DHT22;12042;52.136;5.584;2022-12-07T07:45:59;3.60;99.90
23723;DHT22;12042;52.136;5.584;2022-12-07T07:48:24;3.60;99.90
23723;DHT22;12042;52.136;5.584;2022-12-07T07:50:51;3.20;99.90
23723;DHT22;12042;52.136;5.584;2022-12-07T07:53:16;3.30;99.90
23723;DHT22;12042;52.136;5.584;2022-12-07T07:55:50;4.20;99.90
23723;DHT22;12042;52.136;5.584;2022-12-07T07:58:16;3.50;99.90
23723;DHT22;12042;52.136;5.584;2022-12-07T08:00:42;3.70;99.90
23723;DHT22;12042;52.136;5.584;2022-12-07T08:03:07;3.40;99.90
23723;DHT22;12042;52.136;5.584;2022-12-07T08:05:33;3.70;99.90
23723;DHT22;12042;52.136;5.584;2022-12-07T08:07:58;3.40;99.90
23723;DHT22;12042;52.136;5.584;2022-12-07T08:10:24;3.30;99.90
23723;DHT22;12042;52.136;5.584;2022-12-07T08:12:50;3.70;99.90
23723;DHT22;12042;52.136;5.584;2022-12-07T08:15:37;3.60;99.90
23723;DHT22;12042;52.136;5.584;2022-12-07T08:18:03;3.40;99.90
23723;DHT22;12042;52.136;5.584;2022-12-07T08:20:30;4.00;99.90
23723;DHT22;12042;52.136;5.584;2022-12-07T08:22:56;3.80;99.90
23723;DHT22;12042;52.136;5.584;2022-12-07T08:25:22;3.60;99.90
23723;DHT22;12042;52.136;5.584;2022-12-07T08:27:48;3.80;99.90
23723;DHT22;12042;52.136;5.584;2022-12-07T08:30:14;3.90;99.90
23723;DHT22;12042;52.136;5.584;2022-12-07T08:32:39;3.80;99.90
23723;DHT22;12042;52.136;5.584;2022-12-07T08:35:05;3.50;99.90
23723;DHT22;12042;52.136;5.584;2022-12-07T08:37:31;4.00;99.90
23723;DHT22;12042;52.136;5.584;2022-12-07T08:39:57;3.60;99.90
23723;DHT22;12042;52.136;5.584;2022-12-07T08:42:23;3.90;99.90
23723;DHT22;12042;52.136;5.584;2022-12-07T08:44:53;4.00;99.90
23723;DHT22;12042;52.136;5.584;2022-12-07T08:47:18;3.80;99.90
23723;DHT22;12042;52.136;5.584;2022-12-07T08:49:47;4.20;99.90
23723;DHT22;12042;52.136;5.584;2022-12-07T08:52:15;3.80;99.90
23723;DHT22;12042;52.136;5.584;2022-12-07T08:54:41;3.80;99.90
23723;DHT22;12042;52.136;5.584;2022-12-07T08:57:08;4.30;99.90
23723;DHT22;12042;52.136;5.584;2022-12-07T08:59:36;4.00;99.90
23723;DHT22;12042;52.136;5.584;2022-12-07T09:02:03;4.80;99.90
23723;DHT22;12042;52.136;5.584;2022-12-07T09:04:29;4.80;99.90
23723;DHT22;12042;52.136;5.584;2022-12-07T09:06:55;4.30;99.90
23723;DHT22;12042;52.136;5.584;2022-12-07T09:09:20;4.30;99.90
23723;DHT22;12042;52.136;5.584;2022-12-07T09:11:46;4.30;99.90
23723;DHT22;12042;52.136;5.584;2022-12-07T09:14:12;4.40;99.90
23723;DHT22;12042;52.136;5.584;2022-12-07T09:16:38;4.00;99.90
23723;DHT22;12042;52.136;5.584;2022-12-07T09:19:03;4.80;99.90
23723;DHT22;12042;52.136;5.584;2022-12-07T09:21:29;4.90;99.90
23723;DHT22;12042;52.136;5.584;2022-12-07T09:23:55;4.50;99.90
23723;DHT22;12042;52.136;5.584;2022-12-07T09:26:21;4.30;99.90
23723;DHT22;12042;52.136;5.584;2022-12-07T09:28:46;4.10;99.90
23723;DHT22;12042;52.136;5.584;2022-12-07T09:31:12;4.20;99.90
23723;DHT22;12042;52.136;5.584;2022-12-07T09:33:37;4.20;99.90
23723;DHT22;12042;52.136;5.584;2022-12-07T09:36:04;4.70;99.90
23723;DHT22;12042;52.136;5.584;2022-12-07T09:38:30;4.80;99.90
23723;DHT22;12042;52.136;5.584;2022-12-07T09:40:58;5.10;99.90
23723;DHT22;12042;52.136;5.584;2022-12-07T09:43:29;4.60;99.90
23723;DHT22;12042;52.136;5.584;2022-12-07T09:45:55;4.90;99.90
23723;DHT22;12042;52.136;5.584;2022-12-07T09:48:32;5.00;99.90
23723;DHT22;12042;52.136;5.584;2022-12-07T09:50:59;4.90;99.90
23723;DHT22;12042;52.136;5.584;2022-12-07T09:53:28;5.00;99.90
23723;DHT22;12042;52.136;5.584;2022-12-07T09:55:55;4.70;99.90
23723;DHT22;12042;52.136;5.584;2022-12-07T09:58:26;4.50;99.90
23723;DHT22;12042;52.136;5.584;2022-12-07T10:01:17;4.50;99.90
23723;DHT22;12042;52.136;5.584;2022-12-07T10:03:54;5.00;99.90
23723;DHT22;12042;52.136;5.584;2022-12-07T10:06:21;4.70;99.90
23723;DHT22;12042;52.136;5.584;2022-12-07T10:08:47;5.10;99.90
23723;DHT22;12042;52.136;5.584;2022-12-07T10:11:13;5.10;99.90
23723;DHT22;12042;52.136;5.584;2022-12-07T10:13:49;5.20;99.90
23723;DHT22;12042;52.136;5.584;2022-12-07T10:18:50;4.80;99.90
23723;DHT22;12042;52.136;5.584;2022-12-07T10:21:21;5.70;99.90
23723;DHT22;12042;52.136;5.584;2022-12-07T10:24:14;5.20;99.90
23723;DHT22;12042;52.136;5.584;2022-12-07T10:29:17;5.20;99.90
23723;DHT22;12042;52.136;5.584;2022-12-07T10:31:46;6.10;99.90
23723;DHT22;12042;52.136;5.584;2022-12-07T10:34:27;5.40;99.90
23723;DHT22;12042;52.136;5.584;2022-12-07T10:39:45;5.50;99.90
23723;DHT22;12042;52.136;5.584;2022-12-07T10:42:29;6.10;99.90
23723;DHT22;12042;52.136;5.584;2022-12-07T10:45:15;5.60;99.90
23723;DHT22;12042;52.136;5.584;2022-12-07T10:47:52;5.30;99.90
23723;DHT22;12042;52.136;5.584;2022-12-07T11:01:39;6.00;99.90
23723;DHT22;12042;52.136;5.584;2022-12-07T11:12:31;6.30;99.90
23723;DHT22;12042;52.136;5.584;2022-12-07T11:23:46;6.60;99.90
23723;DHT22;12042;52.136;5.584;2022-12-07T11:29:13;6.60;99.90
23723;DHT22;12042;52.136;5.584;2022-12-07T11:37:25;6.50;99.90
23723;DHT22;12042;52.136;5.584;2022-12-07T11:39:55;6.70;99.90
23723;DHT22;12042;52.136;5.584;2022-12-07T11:42:29;6.60;99.90
23723;DHT22;12042;52.136;5.584;2022-12-07T11:47:48;6.10;99.90
23723;DHT22;12042;52.136;5.584;2022-12-07T11:50:27;6.60;99.90
23723;DHT22;12042;52.136;5.584;2022-12-07T12:03:45;7.10;99.90
23723;DHT22;12042;52.136;5.584;2022-12-07T12:06:11;7.70;99.90
23723;DHT22;12042;52.136;5.584;2022-12-07T12:08:42;7.80;99.90
23723;DHT22;12042;52.136;5.584;2022-12-07T12:19:40;7.70;99.90
23723;DHT22;12042;52.136;5.584;2022-12-07T12:22:18;7.90;99.90
23723;DHT22;12042;52.136;5.584;2022-12-07T12:24:49;7.90;99.90
23723;DHT22;12042;52.136;5.584;2022-12-07T12:27:34;7.80;99.90
23723;DHT22;12042;52.136;5.584;2022-12-07T12:30:31;8.30;99.90
23723;DHT22;12042;52.136;5.584;2022-12-07T12:33:12;8.20;99.90
23723;DHT22;12042;52.136;5.584;2022-12-07T12:35:39;8.30;99.90
23723;DHT22;12042;52.136;5.584;2022-12-07T12:38:28;8.50;99.90
23723;DHT22;12042;52.136;5.584;2022-12-07T12:40:55;8.60;99.90
23723;DHT22;12042;52.136;5.584;2022-12-07T12:43:46;8.80;99.90
23723;DHT22;12042;52.136;5.584;2022-12-07T12:51:44;9.00;99.90
23723;DHT22;12042;52.136;5.584;2022-12-07T12:57:04;9.40;99.90
23723;DHT22;12042;52.136;5.584;2022-12-07T12:59:38;8.70;99.90
23723;DHT22;12042;52.136;5.584;2022-12-07T13:18:25;8.10;99.90
23723;DHT22;12042;52.136;5.584;2022-12-07T13:23:29;7.70;99.90
23723;DHT22;12042;52.136;5.584;2022-12-07T13:26:04;7.40;99.90
23723;DHT22;12042;52.136;5.584;2022-12-07T13:28:43;7.10;99.90
23723;DHT22;12042;52.136;5.584;2022-12-07T13:31:43;7.00;99.90
23723;DHT22;12042;52.136;5.584;2022-12-07T13:34:39;7.00;99.90
23723;DHT22;12042;52.136;5.584;2022-12-07T13:37:26;7.00;99.90
23723;DHT22;12042;52.136;5.584;2022-12-07T13:39:58;7.00;99.90
23723;DHT22;12042;52.136;5.584;2022-12-07T13:42:32;7.00;99.90
23723;DHT22;12042;52.136;5.584;2022-12-07T13:45:00;7.40;99.90
23723;DHT22;12042;52.136;5.584;2022-12-07T13:47:34;7.30;99.90
23723;DHT22;12042;52.136;5.584;2022-12-07T13:50:15;7.30;99.90
23723;DHT22;12042;52.136;5.584;2022-12-07T13:52:46;7.10;99.90
23723;DHT22;12042;52.136;5.584;2022-12-07T13:55:15;7.80;99.90
23723;DHT22;12042;52.136;5.584;2022-12-07T13:57:44;7.50;99.90
23723;DHT22;12042;52.136;5.584;2022-12-07T14:00:17;7.90;99.90
23723;DHT22;12042;52.136;5.584;2022-12-07T14:03:03;7.50;99.90
23723;DHT22;12042;52.136;5.584;2022-12-07T14:05:32;7.50;99.90
23723;DHT22;12042;52.136;5.584;2022-12-07T14:12:56;7.30;99.90
23723;DHT22;12042;52.136;5.584;2022-12-07T14:15:28;7.30;99.90
23723;DHT22;12042;52.136;5.584;2022-12-07T14:17:55;7.30;99.90
23723;DHT22;12042;52.136;5.584;2022-12-07T14:22:56;7.30;99.90
23723;DHT22;12042;52.136;5.584;2022-12-07T14:25:24;7.60;99.90
23723;DHT22;12042;52.136;5.584;2022-12-07T14:28:27;7.70;99.90
23723;DHT22;12042;52.136;5.584;2022-12-07T14:30:52;7.20;99.90
23723;DHT22;12042;52.136;5.584;2022-12-07T14:33:18;7.00;99.90
23723;DHT22;12042;52.136;5.584;2022-12-07T14:35:44;7.70;99.90
23723;DHT22;12042;52.136;5.584;2022-12-07T14:38:09;7.10;99.90
23723;DHT22;12042;52.136;5.584;2022-12-07T14:40:35;6.80;99.90
23723;DHT22;12042;52.136;5.584;2022-12-07T14:43:04;6.80;99.90
23723;DHT22;12042;52.136;5.584;2022-12-07T14:45:30;7.10;99.90
23723;DHT22;12042;52.136;5.584;2022-12-07T14:47:56;6.60;99.90
23723;DHT22;12042;52.136;5.584;2022-12-07T14:50:22;7.10;99.90
23723;DHT22;12042;52.136;5.584;2022-12-07T14:52:52;7.50;99.90
23723;DHT22;12042;52.136;5.584;2022-12-07T14:55:29;7.80;99.90
23723;DHT22;12042;52.136;5.584;2022-12-07T14:57:56;7.30;99.90
23723;DHT22;12042;52.136;5.584;2022-12-07T15:00:24;7.10;99.90
23723;DHT22;12042;52.136;5.584;2022-12-07T15:02:50;7.10;99.90
23723;DHT22;12042;52.136;5.584;2022-12-07T15:05:16;7.20;99.90
23723;DHT22;12042;52.136;5.584;2022-12-07T15:07:43;7.10;99.90
23723;DHT22;12042;52.136;5.584;2022-12-07T15:10:21;7.10;99.90
23723;DHT22;12042;52.136;5.584;2022-12-07T15:12:47;7.00;99.90
23723;DHT22;12042;52.136;5.584;2022-12-07T15:15:13;7.20;99.90
23723;DHT22;12042;52.136;5.584;2022-12-07T15:17:39;7.20;99.90
23723;DHT22;12042;52.136;5.584;2022-12-07T15:20:05;6.70;99.90
23723;DHT22;12042;52.136;5.584;2022-12-07T15:22:32;7.00;99.90
23723;DHT22;12042;52.136;5.584;2022-12-07T15:24:58;7.20;99.90
23723;DHT22;12042;52.136;5.584;2022-12-07T15:27:24;6.90;99.90
23723;DHT22;12042;52.136;5.584;2022-12-07T15:29:49;6.90;99.90
23723;DHT22;12042;52.136;5.584;2022-12-07T15:32:15;7.20;99.90
23723;DHT22;12042;52.136;5.584;2022-12-07T15:34:40;6.70;99.90
23723;DHT22;12042;52.136;5.584;2022-12-07T15:37:07;6.90;99.90
23723;DHT22;12042;52.136;5.584;2022-12-07T15:39:32;6.70;99.90
23723;DHT22;12042;52.136;5.584;2022-12-07T15:41:58;6.60;99.90
23723;DHT22;12042;52.136;5.584;2022-12-07T15:44:24;6.10;99.90
23723;DHT22;12042;52.136;5.584;2022-12-07T15:47:08;6.00;99.90
23723;DHT22;12042;52.136;5.584;2022-12-07T15:49:33;6.30;99.90
23723;DHT22;12042;52.136;5.584;2022-12-07T15:51:59;6.60;99.90
23723;DHT22;12042;52.136;5.584;2022-12-07T15:54:29;6.20;99.90
23723;DHT22;12042;52.136;5.584;2022-12-07T15:56:55;6.60;99.90
23723;DHT22;12042;52.136;5.584;2022-12-07T15:59:22;6.10;99.90
23723;DHT22;12042;52.136;5.584;2022-12-07T16:01:47;6.30;99.90
23723;DHT22;12042;52.136;5.584;2022-12-07T16:04:13;6.70;99.90
23723;DHT22;12042;52.136;5.584;2022-12-07T16:06:39;6.70;99.90
23723;DHT22;12042;52.136;5.584;2022-12-07T16:09:05;6.70;99.90
23723;DHT22;12042;52.136;5.584;2022-12-07T16:11:31;6.60;99.90
23723;DHT22;12042;52.136;5.584;2022-12-07T16:13:57;6.00;99.90
23723;DHT22;12042;52.136;5.584;2022-12-07T16:16:22;6.20;99.90
23723;DHT22;12042;52.136;5.584;2022-12-07T16:18:49;6.00;99.90
23723;DHT22;12042;52.136;5.584;2022-12-07T16:21:16;6.60;99.90
23723;DHT22;12042;52.136;5.584;2022-12-07T16:23:43;6.20;99.90
23723;DHT22;12042;52.136;5.584;2022-12-07T16:26:16;6.60;99.90
23723;DHT22;12042;52.136;5.584;2022-12-07T16:28:43;5.80;99.90
23723;DHT22;12042;52.136;5.584;2022-12-07T16:31:14;6.30;99.90
23723;DHT22;12042;52.136;5.584;2022-12-07T16:33:41;6.00;99.90
23723;DHT22;12042;52.136;5.584;2022-12-07T16:36:09;6.20;99.90
23723;DHT22;12042;52.136;5.584;2022-12-07T16:38:35;6.30;99.90
23723;DHT22;12042;52.136;5.584;2022-12-07T16:41:01;6.20;99.90
23723;DHT22;12042;52.136;5.584;2022-12-07T16:43:27;6.30;99.90
23723;DHT22;12042;52.136;5.584;2022-12-07T16:45:53;6.10;99.90
23723;DHT22;12042;52.136;5.584;2022-12-07T16:48:18;6.00;99.90
23723;DHT22;12042;52.136;5.584;2022-12-07T16:50:45;6.00;99.90
23723;DHT22;12042;52.136;5.584;2022-12-07T16:53:12;6.30;99.90
23723;DHT22;12042;52.136;5.584;2022-12-07T16:55:40;5.90;99.90
23723;DHT22;12042;52.136;5.584;2022-12-07T16:58:06;6.00;99.90
23723;DHT22;12042;52.136;5.584;2022-12-07T17:00:32;6.00;99.90
23723;DHT22;12042;52.136;5.584;2022-12-07T17:02:58;6.50;99.90
23723;DHT22;12042;52.136;5.584;2022-12-07T17:05:24;5.90;99.90
23723;DHT22;12042;52.136;5.584;2022-12-07T17:07:50;5.70;99.90
23723;DHT22;12042;52.136;5.584;2022-12-07T17:10:16;5.70;99.90
23723;DHT22;12042;52.136;5.584;2022-12-07T17:12:41;6.10;99.90
23723;DHT22;12042;52.136;5.584;2022-12-07T17:15:08;6.10;99.90
23723;DHT22;12042;52.136;5.584;2022-12-07T17:17:45;6.10;99.90
23723;DHT22;12042;52.136;5.584;2022-12-07T17:20:11;6.30;99.90
23723;DHT22;12042;52.136;5.584;2022-12-07T17:22:37;6.00;99.90
23723;DHT22;12042;52.136;5.584;2022-12-07T17:25:04;5.50;99.90
23723;DHT22;12042;52.136;5.584;2022-12-07T17:27:30;6.00;99.90
23723;DHT22;12042;52.136;5.584;2022-12-07T17:29:56;5.90;99.90
23723;DHT22;12042;52.136;5.584;2022-12-07T17:32:22;6.20;99.90
23723;DHT22;12042;52.136;5.584;2022-12-07T17:34:47;6.00;99.90
23723;DHT22;12042;52.136;5.584;2022-12-07T17:37:13;5.80;99.90
23723;DHT22;12042;52.136;5.584;2022-12-07T17:39:39;6.10;99.90
23723;DHT22;12042;52.136;5.584;2022-12-07T17:42:04;5.70;99.90
23723;DHT22;12042;52.136;5.584;2022-12-07T17:44:48;5.70;99.90
23723;DHT22;12042;52.136;5.584;2022-12-07T17:47:14;5.70;99.90
23723;DHT22;12042;52.136;5.584;2022-12-07T17:49:42;5.30;99.90
23723;DHT22;12042;52.136;5.584;2022-12-07T17:52:11;5.50;99.90
23723;DHT22;12042;52.136;5.584;2022-12-07T17:54:55;5.30;99.90
23723;DHT22;12042;52.136;5.584;2022-12-07T17:57:20;5.30;99.90
23723;DHT22;12042;52.136;5.584;2022-12-07T17:59:46;5.00;99.90
23723;DHT22;12042;52.136;5.584;2022-12-07T18:02:12;5.60;99.90
23723;DHT22;12042;52.136;5.584;2022-12-07T18:04:38;6.00;99.90
23723;DHT22;12042;52.136;5.584;2022-12-07T18:07:06;5.10;99.90
23723;DHT22;12042;52.136;5.584;2022-12-07T18:09:32;4.90;99.90
23723;DHT22;12042;52.136;5.584;2022-12-07T18:11:58;5.60;99.90
23723;DHT22;12042;52.136;5.584;2022-12-07T18:14:23;5.30;99.90
23723;DHT22;12042;52.136;5.584;2022-12-07T18:16:49;5.00;99.90
23723;DHT22;12042;52.136;5.584;2022-12-07T18:19:14;5.00;99.90
23723;DHT22;12042;52.136;5.584;2022-12-07T18:21:42;5.30;99.90
23723;DHT22;12042;52.136;5.584;2022-12-07T18:24:10;5.40;99.90
23723;DHT22;12042;52.136;5.584;2022-12-07T18:26:36;5.30;99.90
23723;DHT22;12042;52.136;5.584;2022-12-07T18:29:02;6.00;99.90
23723;DHT22;12042;52.136;5.584;2022-12-07T18:31:28;5.20;99.90
23723;DHT22;12042;52.136;5.584;2022-12-07T18:33:55;5.00;99.90
23723;DHT22;12042;52.136;5.584;2022-12-07T18:36:21;5.50;99.90
23723;DHT22;12042;52.136;5.584;2022-12-07T18:38:47;5.50;99.90
23723;DHT22;12042;52.136;5.584;2022-12-07T18:41:13;5.20;99.90
23723;DHT22;12042;52.136;5.584;2022-12-07T18:43:41;5.90;99.90
23723;DHT22;12042;52.136;5.584;2022-12-07T18:46:15;5.40;99.90
23723;DHT22;12042;52.136;5.584;2022-12-07T18:48:41;5.40;99.90
23723;DHT22;12042;52.136;5.584;2022-12-07T18:51:08;5.00;99.90
23723;DHT22;12042;52.136;5.584;2022-12-07T18:53:34;5.10;99.90
23723;DHT22;12042;52.136;5.584;2022-12-07T18:56:01;5.70;99.90
23723;DHT22;12042;52.136;5.584;2022-12-07T18:58:27;5.20;99.90
23723;DHT22;12042;52.136;5.584;2022-12-07T19:00:54;5.20;99.90
23723;DHT22;12042;52.136;5.584;2022-12-07T19:03:20;5.40;99.90
23723;DHT22;12042;52.136;5.584;2022-12-07T19:05:46;5.40;99.90
23723;DHT22;12042;52.136;5.584;2022-12-07T19:08:11;5.30;99.90
23723;DHT22;12042;52.136;5.584;2022-12-07T19:10:37;5.00;99.90
23723;DHT22;12042;52.136;5.584;2022-12-07T19:13:03;5.00;99.90
23723;DHT22;12042;52.136;5.584;2022-12-07T19:15:30;5.20;99.90
23723;DHT22;12042;52.136;5.584;2022-12-07T19:17:56;6.10;99.90
23723;DHT22;12042;52.136;5.584;2022-12-07T19:20:22;5.40;99.90
23723;DHT22;12042;52.136;5.584;2022-12-07T19:22:47;4.90;99.90
23723;DHT22;12042;52.136;5.584;2022-12-07T19:25:13;5.70;99.90
23723;DHT22;12042;52.136;5.584;2022-12-07T19:27:39;5.00;99.90
23723;DHT22;12042;52.136;5.584;2022-12-07T19:30:06;5.50;99.90
23723;DHT22;12042;52.136;5.584;2022-12-07T19:32:34;5.30;99.90
23723;DHT22;12042;52.136;5.584;2022-12-07T19:35:02;5.30;99.90
23723;DHT22;12042;52.136;5.584;2022-12-07T19:37:28;5.40;99.90
23723;DHT22;12042;52.136;5.584;2022-12-07T19:39:54;5.30;99.90
23723;DHT22;12042;52.136;5.584;2022-12-07T19:42:19;5.30;99.90
23723;DHT22;12042;52.136;5.584;2022-12-07T19:44:45;5.10;99.90
23723;DHT22;12042;52.136;5.584;2022-12-07T19:47:11;5.80;99.90
23723;DHT22;12042;52.136;5.584;2022-12-07T19:49:39;6.10;99.90
23723;DHT22;12042;52.136;5.584;2022-12-07T19:52:06;5.70;99.90
23723;DHT22;12042;52.136;5.584;2022-12-07T19:54:33;5.80;99.90
23723;DHT22;12042;52.136;5.584;2022-12-07T19:56:59;5.80;99.90
23723;DHT22;12042;52.136;5.584;2022-12-07T19:59:26;6.40;99.90
23723;DHT22;12042;52.136;5.584;2022-12-07T20:01:52;6.30;99.90
23723;DHT22;12042;52.136;5.584;2022-12-07T20:04:20;5.80;99.90
23723;DHT22;12042;52.136;5.584;2022-12-07T20:06:48;5.90;99.90
23723;DHT22;12042;52.136;5.584;2022-12-07T20:09:14;6.30;99.90
23723;DHT22;12042;52.136;5.584;2022-12-07T20:11:39;5.80;99.90
23723;DHT22;12042;52.136;5.584;2022-12-07T20:14:24;6.00;99.90
23723;DHT22;12042;52.136;5.584;2022-12-07T20:16:50;6.70;99.90
23723;DHT22;12042;52.136;5.584;2022-12-07T20:19:16;6.40;99.90
23723;DHT22;12042;52.136;5.584;2022-12-07T20:21:43;6.10;99.90
23723;DHT22;12042;52.136;5.584;2022-12-07T20:24:14;6.50;99.90
23723;DHT22;12042;52.136;5.584;2022-12-07T20:26:42;5.90;99.90
23723;DHT22;12042;52.136;5.584;2022-12-07T20:29:09;6.40;99.90
23723;DHT22;12042;52.136;5.584;2022-12-07T20:31:35;6.40;99.90
23723;DHT22;12042;52.136;5.584;2022-12-07T20:34:01;6.10;99.90
23723;DHT22;12042;52.136;5.584;2022-12-07T20:36:28;6.50;99.90
23723;DHT22;12042;52.136;5.584;2022-12-07T20:38:53;6.70;99.90
23723;DHT22;12042;52.136;5.584;2022-12-07T20:41:19;6.40;99.90
23723;DHT22;12042;52.136;5.584;2022-12-07T20:44:04;7.10;99.90
23723;DHT22;12042;52.136;5.584;2022-12-07T20:46:29;6.60;99.90
23723;DHT22;12042;52.136;5.584;2022-12-07T20:48:59;6.10;99.90
23723;DHT22;12042;52.136;5.584;2022-12-07T20:51:28;6.40;99.90
23723;DHT22;12042;52.136;5.584;2022-12-07T20:53:55;6.50;99.90
23723;DHT22;12042;52.136;5.584;2022-12-07T20:56:23;6.70;99.90
23723;DHT22;12042;52.136;5.584;2022-12-07T20:58:49;6.60;99.90
23723;DHT22;12042;52.136;5.584;2022-12-07T21:01:15;6.60;99.90
23723;DHT22;12042;52.136;5.584;2022-12-07T21:03:41;6.90;99.90
23723;DHT22;12042;52.136;5.584;2022-12-07T21:06:12;6.80;99.90
23723;DHT22;12042;52.136;5.584;2022-12-07T21:08:45;6.70;99.90
23723;DHT22;12042;52.136;5.584;2022-12-07T21:11:12;7.20;99.90
23723;DHT22;12042;52.136;5.584;2022-12-07T21:13:38;6.60;99.90
23723;DHT22;12042;52.136;5.584;2022-12-07T21:16:11;6.30;99.90
23723;DHT22;12042;52.136;5.584;2022-12-07T21:18:37;6.70;99.90
23723;DHT22;12042;52.136;5.584;2022-12-07T21:21:08;6.60;99.90
23723;DHT22;12042;52.136;5.584;2022-12-07T21:23:35;6.60;99.90
23723;DHT22;12042;52.136;5.584;2022-12-07T21:26:07;6.40;99.90
23723;DHT22;12042;52.136;5.584;2022-12-07T21:28:33;6.60;99.90
23723;DHT22;12042;52.136;5.584;2022-12-07T21:30:59;6.30;99.90
23723;DHT22;12042;52.136;5.584;2022-12-07T21:33:24;6.40;99.90
23723;DHT22;12042;52.136;5.584;2022-12-07T21:35:50;6.60;99.90
23723;DHT22;12042;52.136;5.584;2022-12-07T21:38:16;6.40;99.90
23723;DHT22;12042;52.136;5.584;2022-12-07T21:40:42;6.40;99.90
23723;DHT22;12042;52.136;5.584;2022-12-07T21:43:07;5.90;99.90
23723;DHT22;12042;52.136;5.584;2022-12-07T21:45:35;6.30;99.90
23723;DHT22;12042;52.136;5.584;2022-12-07T21:48:01;6.30;99.90
23723;DHT22;12042;52.136;5.584;2022-12-07T21:50:26;6.30;99.90
23723;DHT22;12042;52.136;5.584;2022-12-07T21:52:54;5.90;99.90
23723;DHT22;12042;52.136;5.584;2022-12-07T21:55:19;6.20;99.90
23723;DHT22;12042;52.136;5.584;2022-12-07T21:57:45;5.90;99.90
23723;DHT22;12042;52.136;5.584;2022-12-07T22:00:11;6.10;99.90
23723;DHT22;12042;52.136;5.584;2022-12-07T22:02:37;6.10;99.90
23723;DHT22;12042;52.136;5.584;2022-12-07T22:05:03;6.60;99.90
23723;DHT22;12042;52.136;5.584;2022-12-07T22:07:29;6.30;99.90
23723;DHT22;12042;52.136;5.584;2022-12-07T22:09:54;6.20;99.90
23723;DHT22;12042;52.136;5.584;2022-12-07T22:12:20;6.30;99.90
23723;DHT22;12042;52.136;5.584;2022-12-07T22:14:45;6.30;99.90
23723;DHT22;12042;52.136;5.584;2022-12-07T22:17:30;6.40;99.90
23723;DHT22;12042;52.136;5.584;2022-12-07T22:19:55;6.00;99.90
23723;DHT22;12042;52.136;5.584;2022-12-07T22:22:21;6.30;99.90
23723;DHT22;12042;52.136;5.584;2022-12-07T22:24:47;5.80;99.90
23723;DHT22;12042;52.136;5.584;2022-12-07T22:27:13;5.90;99.90
23723;DHT22;12042;52.136;5.584;2022-12-07T22:29:39;5.60;99.90
23723;DHT22;12042;52.136;5.584;2022-12-07T22:32:05;6.20;99.90
23723;DHT22;12042;52.136;5.584;2022-12-07T22:34:30;5.80;99.90
23723;DHT22;12042;52.136;5.584;2022-12-07T22:36:56;5.60;99.90
23723;DHT22;12042;52.136;5.584;2022-12-07T22:39:21;5.80;99.90
